Terminal Aerodrome Forecast
Issued by NWS

Home | Current Version | Previous Version | Text Only | Print | Product List | Glossary On
Versions: 1 2 3 4 5 6 7 8 9 10 11 12 13
000
FTUS41 KBTV 262320
TAFSLK
TAF
KSLK 262320Z 2700/2724 VRB04KT P6SM OVC035
     FM270200 00000KT P6SM VCSH BKN020 OVC030
     FM270400 VRB02KT P6SM OVC025
     FM270700 33004KT P6SM VCSH OVC010
     FM271200 34008KT 5SM -SHRA BR SCT008 OVC015=

USA.gov is the U.S. government's official web portal to all federal, state and local government web resources and services.